sensor_id;sensor_type;location;lat;lon;timestamp;temperature;humidity
42683;DHT22;28293;50.930;3.464;2023-03-23T00:01:28;12.90;83.50
42683;DHT22;28293;50.930;3.464;2023-03-23T00:03:58;12.90;83.60
42683;DHT22;28293;50.930;3.464;2023-03-23T00:06:26;12.90;83.60
42683;DHT22;28293;50.930;3.464;2023-03-23T00:08:53;12.90;83.70
42683;DHT22;28293;50.930;3.464;2023-03-23T00:11:26;12.90;83.80
42683;DHT22;28293;50.930;3.464;2023-03-23T00:13:55;12.90;84.00
42683;DHT22;28293;50.930;3.464;2023-03-23T00:16:24;12.80;84.10
42683;DHT22;28293;50.930;3.464;2023-03-23T00:19:01;12.80;84.20
42683;DHT22;28293;50.930;3.464;2023-03-23T00:21:30;12.70;84.20
42683;DHT22;28293;50.930;3.464;2023-03-23T00:24:11;12.70;84.20
42683;DHT22;28293;50.930;3.464;2023-03-23T00:26:39;12.70;84.20
42683;DHT22;28293;50.930;3.464;2023-03-23T00:29:28;12.70;84.00
42683;DHT22;28293;50.930;3.464;2023-03-23T00:31:55;12.60;84.00
42683;DHT22;28293;50.930;3.464;2023-03-23T00:34:23;12.70;83.80
42683;DHT22;28293;50.930;3.464;2023-03-23T00:36:51;12.70;83.70
42683;DHT22;28293;50.930;3.464;2023-03-23T00:39:19;12.70;83.70
42683;DHT22;28293;50.930;3.464;2023-03-23T00:41:45;12.70;83.60
42683;DHT22;28293;50.930;3.464;2023-03-23T00:44:12;12.70;83.50
42683;DHT22;28293;50.930;3.464;2023-03-23T00:46:46;12.80;83.40
42683;DHT22;28293;50.930;3.464;2023-03-23T00:49:17;12.70;83.50
42683;DHT22;28293;50.930;3.464;2023-03-23T00:51:43;12.70;83.60
42683;DHT22;28293;50.930;3.464;2023-03-23T00:54:09;12.70;83.70
42683;DHT22;28293;50.930;3.464;2023-03-23T00:56:36;12.70;83.80
42683;DHT22;28293;50.930;3.464;2023-03-23T00:59:02;12.70;83.60
42683;DHT22;28293;50.930;3.464;2023-03-23T01:01:29;12.70;83.70
42683;DHT22;28293;50.930;3.464;2023-03-23T01:03:54;12.80;83.80
42683;DHT22;28293;50.930;3.464;2023-03-23T01:06:27;12.80;83.70
42683;DHT22;28293;50.930;3.464;2023-03-23T01:08:53;12.80;83.70
42683;DHT22;28293;50.930;3.464;2023-03-23T01:11:19;12.80;83.90
42683;DHT22;28293;50.930;3.464;2023-03-23T01:13:46;12.80;83.80
42683;DHT22;28293;50.930;3.464;2023-03-23T01:16:12;12.80;83.90
42683;DHT22;28293;50.930;3.464;2023-03-23T01:18:38;12.80;83.80
42683;DHT22;28293;50.930;3.464;2023-03-23T01:21:09;12.80;83.90
42683;DHT22;28293;50.930;3.464;2023-03-23T01:23:36;12.70;83.80
42683;DHT22;28293;50.930;3.464;2023-03-23T01:26:07;12.70;83.80
42683;DHT22;28293;50.930;3.464;2023-03-23T01:28:34;12.70;83.90
42683;DHT22;28293;50.930;3.464;2023-03-23T01:31:08;12.60;83.90
42683;DHT22;28293;50.930;3.464;2023-03-23T01:33:35;12.60;83.90
42683;DHT22;28293;50.930;3.464;2023-03-23T01:36:10;12.70;83.70
42683;DHT22;28293;50.930;3.464;2023-03-23T01:38:36;12.70;83.70
42683;DHT22;28293;50.930;3.464;2023-03-23T01:41:03;12.70;83.60
42683;DHT22;28293;50.930;3.464;2023-03-23T01:43:29;12.70;83.50
42683;DHT22;28293;50.930;3.464;2023-03-23T01:45:55;12.70;83.10
42683;DHT22;28293;50.930;3.464;2023-03-23T01:48:24;12.80;83.10
42683;DHT22;28293;50.930;3.464;2023-03-23T01:51:04;12.70;83.10
42683;DHT22;28293;50.930;3.464;2023-03-23T01:53:45;12.80;83.00
42683;DHT22;28293;50.930;3.464;2023-03-23T01:56:13;12.80;82.90
42683;DHT22;28293;50.930;3.464;2023-03-23T01:58:40;12.80;83.00
42683;DHT22;28293;50.930;3.464;2023-03-23T02:01:10;12.80;83.10
42683;DHT22;28293;50.930;3.464;2023-03-23T02:03:38;12.80;83.00
42683;DHT22;28293;50.930;3.464;2023-03-23T02:06:05;12.80;83.10
42683;DHT22;28293;50.930;3.464;2023-03-23T02:08:32;12.70;83.00
42683;DHT22;28293;50.930;3.464;2023-03-23T02:10:58;12.80;82.60
42683;DHT22;28293;50.930;3.464;2023-03-23T02:13:26;12.80;82.50
42683;DHT22;28293;50.930;3.464;2023-03-23T02:18:39;12.80;82.30
42683;DHT22;28293;50.930;3.464;2023-03-23T02:26:54;12.70;82.10
42683;DHT22;28293;50.930;3.464;2023-03-23T02:34:56;12.70;82.00
42683;DHT22;28293;50.930;3.464;2023-03-23T02:37:36;12.80;81.90
42683;DHT22;28293;50.930;3.464;2023-03-23T02:40:07;12.80;82.00
42683;DHT22;28293;50.930;3.464;2023-03-23T02:42:38;12.80;81.80
42683;DHT22;28293;50.930;3.464;2023-03-23T02:45:08;12.80;81.70
42683;DHT22;28293;50.930;3.464;2023-03-23T02:47:35;12.80;81.80
42683;DHT22;28293;50.930;3.464;2023-03-23T02:50:04;12.80;81.70
42683;DHT22;28293;50.930;3.464;2023-03-23T02:52:32;12.80;81.80
42683;DHT22;28293;50.930;3.464;2023-03-23T02:55:00;12.80;81.80
42683;DHT22;28293;50.930;3.464;2023-03-23T02:57:27;12.80;81.70
42683;DHT22;28293;50.930;3.464;2023-03-23T02:59:53;12.80;81.70
42683;DHT22;28293;50.930;3.464;2023-03-23T03:02:26;12.80;81.50
42683;DHT22;28293;50.930;3.464;2023-03-23T03:10:28;12.80;82.00
42683;DHT22;28293;50.930;3.464;2023-03-23T03:21:22;12.80;82.30
42683;DHT22;28293;50.930;3.464;2023-03-23T03:23:56;12.80;82.30
42683;DHT22;28293;50.930;3.464;2023-03-23T03:26:25;12.80;82.40
42683;DHT22;28293;50.930;3.464;2023-03-23T03:28:55;12.70;82.50
42683;DHT22;28293;50.930;3.464;2023-03-23T03:31:32;12.70;82.60
42683;DHT22;28293;50.930;3.464;2023-03-23T03:33:59;12.70;82.70
42683;DHT22;28293;50.930;3.464;2023-03-23T03:36:30;12.70;82.70
42683;DHT22;28293;50.930;3.464;2023-03-23T03:39:02;12.70;82.70
42683;DHT22;28293;50.930;3.464;2023-03-23T03:41:30;12.70;82.50
42683;DHT22;28293;50.930;3.464;2023-03-23T03:43:56;12.70;82.40
42683;DHT22;28293;50.930;3.464;2023-03-23T03:46:21;12.70;82.40
42683;DHT22;28293;50.930;3.464;2023-03-23T03:48:47;12.70;82.20
42683;DHT22;28293;50.930;3.464;2023-03-23T03:51:13;12.70;82.10
42683;DHT22;28293;50.930;3.464;2023-03-23T03:53:39;12.70;82.20
42683;DHT22;28293;50.930;3.464;2023-03-23T03:56:05;12.70;82.00
42683;DHT22;28293;50.930;3.464;2023-03-23T03:58:30;12.70;82.00
42683;DHT22;28293;50.930;3.464;2023-03-23T04:00:58;12.70;82.00
42683;DHT22;28293;50.930;3.464;2023-03-23T04:03:25;12.70;82.00
42683;DHT22;28293;50.930;3.464;2023-03-23T04:05:53;12.70;81.90
42683;DHT22;28293;50.930;3.464;2023-03-23T04:08:23;12.70;81.90
42683;DHT22;28293;50.930;3.464;2023-03-23T04:10:49;12.70;81.60
42683;DHT22;28293;50.930;3.464;2023-03-23T04:13:16;12.70;81.60
42683;DHT22;28293;50.930;3.464;2023-03-23T04:15:43;12.70;81.60
42683;DHT22;28293;50.930;3.464;2023-03-23T04:18:08;12.70;81.80
42683;DHT22;28293;50.930;3.464;2023-03-23T04:20:34;12.60;81.70
42683;DHT22;28293;50.930;3.464;2023-03-23T04:23:00;12.60;81.90
42683;DHT22;28293;50.930;3.464;2023-03-23T04:25:27;12.60;82.00
42683;DHT22;28293;50.930;3.464;2023-03-23T04:27:53;12.60;81.80
42683;DHT22;28293;50.930;3.464;2023-03-23T04:30:24;12.60;82.10
42683;DHT22;28293;50.930;3.464;2023-03-23T04:32:50;12.60;82.70
42683;DHT22;28293;50.930;3.464;2023-03-23T04:35:19;12.60;83.00
42683;DHT22;28293;50.930;3.464;2023-03-23T04:37:45;12.50;83.20
42683;DHT22;28293;50.930;3.464;2023-03-23T04:40:11;12.50;83.30
42683;DHT22;28293;50.930;3.464;2023-03-23T04:42:43;12.50;83.20
42683;DHT22;28293;50.930;3.464;2023-03-23T04:45:18;12.40;83.80
42683;DHT22;28293;50.930;3.464;2023-03-23T04:47:50;12.40;84.20
42683;DHT22;28293;50.930;3.464;2023-03-23T04:50:20;12.40;84.50
42683;DHT22;28293;50.930;3.464;2023-03-23T04:52:50;12.30;84.70
42683;DHT22;28293;50.930;3.464;2023-03-23T04:55:17;12.30;85.10
42683;DHT22;28293;50.930;3.464;2023-03-23T04:57:43;12.10;85.50
42683;DHT22;28293;50.930;3.464;2023-03-23T05:00:10;12.20;86.00
42683;DHT22;28293;50.930;3.464;2023-03-23T05:02:40;12.10;86.40
42683;DHT22;28293;50.930;3.464;2023-03-23T05:05:07;12.10;87.00
42683;DHT22;28293;50.930;3.464;2023-03-23T05:07:33;12.00;87.30
42683;DHT22;28293;50.930;3.464;2023-03-23T05:09:58;11.90;87.60
42683;DHT22;28293;50.930;3.464;2023-03-23T05:12:24;11.90;87.80
42683;DHT22;28293;50.930;3.464;2023-03-23T05:14:50;11.90;88.10
42683;DHT22;28293;50.930;3.464;2023-03-23T05:17:16;11.80;88.40
42683;DHT22;28293;50.930;3.464;2023-03-23T05:19:45;11.70;89.30
42683;DHT22;28293;50.930;3.464;2023-03-23T05:22:14;11.60;89.50
42683;DHT22;28293;50.930;3.464;2023-03-23T05:24:40;11.60;89.80
42683;DHT22;28293;50.930;3.464;2023-03-23T05:27:06;11.60;89.80
42683;DHT22;28293;50.930;3.464;2023-03-23T05:29:34;11.60;89.70
42683;DHT22;28293;50.930;3.464;2023-03-23T05:32:02;11.40;89.70
42683;DHT22;28293;50.930;3.464;2023-03-23T05:34:29;11.10;89.30
42683;DHT22;28293;50.930;3.464;2023-03-23T05:36:58;11.10;89.20
42683;DHT22;28293;50.930;3.464;2023-03-23T05:39:25;11.00;89.10
42683;DHT22;28293;50.930;3.464;2023-03-23T05:41:51;11.00;89.10
42683;DHT22;28293;50.930;3.464;2023-03-23T05:44:18;10.80;89.10
42683;DHT22;28293;50.930;3.464;2023-03-23T05:46:44;10.80;89.10
42683;DHT22;28293;50.930;3.464;2023-03-23T05:49:10;10.70;89.00
42683;DHT22;28293;50.930;3.464;2023-03-23T05:51:36;10.80;89.10
42683;DHT22;28293;50.930;3.464;2023-03-23T05:54:02;10.70;88.90
42683;DHT22;28293;50.930;3.464;2023-03-23T05:56:29;10.60;89.00
42683;DHT22;28293;50.930;3.464;2023-03-23T05:58:56;10.60;89.20
42683;DHT22;28293;50.930;3.464;2023-03-23T06:01:22;10.60;89.30
42683;DHT22;28293;50.930;3.464;2023-03-23T06:03:48;10.50;89.50
42683;DHT22;28293;50.930;3.464;2023-03-23T06:06:16;10.60;89.60
42683;DHT22;28293;50.930;3.464;2023-03-23T06:08:43;10.60;89.50
42683;DHT22;28293;50.930;3.464;2023-03-23T06:11:10;10.60;89.50
42683;DHT22;28293;50.930;3.464;2023-03-23T06:13:35;10.60;89.50
42683;DHT22;28293;50.930;3.464;2023-03-23T06:16:02;10.60;89.60
42683;DHT22;28293;50.930;3.464;2023-03-23T06:18:29;10.60;89.60
42683;DHT22;28293;50.930;3.464;2023-03-23T06:20:59;10.60;89.70
42683;DHT22;28293;50.930;3.464;2023-03-23T06:23:26;10.60;89.60
42683;DHT22;28293;50.930;3.464;2023-03-23T06:25:58;10.60;89.60
42683;DHT22;28293;50.930;3.464;2023-03-23T06:28:25;10.50;89.60
42683;DHT22;28293;50.930;3.464;2023-03-23T06:30:51;10.60;89.70
42683;DHT22;28293;50.930;3.464;2023-03-23T06:33:17;10.60;89.50
42683;DHT22;28293;50.930;3.464;2023-03-23T06:35:43;10.60;89.30
42683;DHT22;28293;50.930;3.464;2023-03-23T06:38:09;10.60;89.10
42683;DHT22;28293;50.930;3.464;2023-03-23T06:40:35;10.60;89.10
42683;DHT22;28293;50.930;3.464;2023-03-23T06:43:04;10.60;89.10
42683;DHT22;28293;50.930;3.464;2023-03-23T06:45:30;10.60;89.20
42683;DHT22;28293;50.930;3.464;2023-03-23T06:47:56;10.60;89.20
42683;DHT22;28293;50.930;3.464;2023-03-23T06:50:22;10.60;89.00
42683;DHT22;28293;50.930;3.464;2023-03-23T06:52:50;10.70;89.00
42683;DHT22;28293;50.930;3.464;2023-03-23T06:55:16;10.70;89.00
42683;DHT22;28293;50.930;3.464;2023-03-23T06:57:43;10.80;89.00
42683;DHT22;28293;50.930;3.464;2023-03-23T07:00:12;10.80;88.90
42683;DHT22;28293;50.930;3.464;2023-03-23T07:02:43;10.80;88.90
42683;DHT22;28293;50.930;3.464;2023-03-23T07:05:10;10.80;88.70
42683;DHT22;28293;50.930;3.464;2023-03-23T07:07:40;10.80;88.70
42683;DHT22;28293;50.930;3.464;2023-03-23T07:10:07;10.80;88.90
42683;DHT22;28293;50.930;3.464;2023-03-23T07:12:35;10.80;88.90
42683;DHT22;28293;50.930;3.464;2023-03-23T07:15:02;10.80;88.80
42683;DHT22;28293;50.930;3.464;2023-03-23T07:17:28;10.80;88.90
42683;DHT22;28293;50.930;3.464;2023-03-23T07:19:54;10.80;88.80
42683;DHT22;28293;50.930;3.464;2023-03-23T07:22:20;10.80;88.80
42683;DHT22;28293;50.930;3.464;2023-03-23T07:24:45;10.80;88.80
42683;DHT22;28293;50.930;3.464;2023-03-23T07:27:11;10.90;88.60
42683;DHT22;28293;50.930;3.464;2023-03-23T07:29:37;10.90;88.50
42683;DHT22;28293;50.930;3.464;2023-03-23T07:32:04;10.90;88.50
42683;DHT22;28293;50.930;3.464;2023-03-23T07:34:30;10.90;88.50
42683;DHT22;28293;50.930;3.464;2023-03-23T07:36:57;11.00;88.50
42683;DHT22;28293;50.930;3.464;2023-03-23T07:39:23;11.10;88.30
42683;DHT22;28293;50.930;3.464;2023-03-23T07:41:50;11.20;88.00
42683;DHT22;28293;50.930;3.464;2023-03-23T07:44:15;11.30;87.70
42683;DHT22;28293;50.930;3.464;2023-03-23T07:46:41;11.30;87.40
42683;DHT22;28293;50.930;3.464;2023-03-23T07:49:08;11.40;87.20
42683;DHT22;28293;50.930;3.464;2023-03-23T07:51:34;11.50;87.10
42683;DHT22;28293;50.930;3.464;2023-03-23T07:54:00;11.50;86.80
42683;DHT22;28293;50.930;3.464;2023-03-23T07:56:28;11.60;86.50
42683;DHT22;28293;50.930;3.464;2023-03-23T07:58:54;11.70;86.60
42683;DHT22;28293;50.930;3.464;2023-03-23T08:01:20;11.80;86.60
42683;DHT22;28293;50.930;3.464;2023-03-23T08:03:46;11.90;86.20
42683;DHT22;28293;50.930;3.464;2023-03-23T08:06:12;11.90;86.00
42683;DHT22;28293;50.930;3.464;2023-03-23T08:08:38;11.90;85.90
42683;DHT22;28293;50.930;3.464;2023-03-23T08:11:06;12.10;85.90
42683;DHT22;28293;50.930;3.464;2023-03-23T08:13:32;12.10;85.70
42683;DHT22;28293;50.930;3.464;2023-03-23T08:15:59;12.30;85.10
42683;DHT22;28293;50.930;3.464;2023-03-23T08:18:25;12.60;84.50
42683;DHT22;28293;50.930;3.464;2023-03-23T08:20:51;12.90;84.80
42683;DHT22;28293;50.930;3.464;2023-03-23T08:23:19;13.20;83.60
42683;DHT22;28293;50.930;3.464;2023-03-23T08:25:45;13.30;82.70
42683;DHT22;28293;50.930;3.464;2023-03-23T08:28:11;13.40;81.90
42683;DHT22;28293;50.930;3.464;2023-03-23T08:30:40;13.40;81.30
42683;DHT22;28293;50.930;3.464;2023-03-23T08:33:07;13.50;81.20
42683;DHT22;28293;50.930;3.464;2023-03-23T08:35:36;13.70;81.60
42683;DHT22;28293;50.930;3.464;2023-03-23T08:38:02;13.70;80.90
42683;DHT22;28293;50.930;3.464;2023-03-23T08:40:28;13.80;80.50
42683;DHT22;28293;50.930;3.464;2023-03-23T08:42:54;13.70;80.80
42683;DHT22;28293;50.930;3.464;2023-03-23T08:45:22;13.70;80.70
42683;DHT22;28293;50.930;3.464;2023-03-23T08:47:49;13.80;80.40
42683;DHT22;28293;50.930;3.464;2023-03-23T08:50:19;13.80;80.70
42683;DHT22;28293;50.930;3.464;2023-03-23T08:52:45;13.80;80.40
42683;DHT22;28293;50.930;3.464;2023-03-23T08:55:11;13.70;80.50
42683;DHT22;28293;50.930;3.464;2023-03-23T08:57:38;13.90;80.40
42683;DHT22;28293;50.930;3.464;2023-03-23T09:00:06;14.00;80.30
42683;DHT22;28293;50.930;3.464;2023-03-23T09:02:53;14.10;79.50
42683;DHT22;28293;50.930;3.464;2023-03-23T09:05:22;14.20;78.80
42683;DHT22;28293;50.930;3.464;2023-03-23T09:07:51;14.30;78.60
42683;DHT22;28293;50.930;3.464;2023-03-23T09:10:18;14.30;78.70
42683;DHT22;28293;50.930;3.464;2023-03-23T09:12:46;14.50;78.60
42683;DHT22;28293;50.930;3.464;2023-03-23T09:15:15;14.60;78.50
42683;DHT22;28293;50.930;3.464;2023-03-23T09:17:43;14.70;78.20
42683;DHT22;28293;50.930;3.464;2023-03-23T09:20:12;15.00;77.60
42683;DHT22;28293;50.930;3.464;2023-03-23T09:22:39;15.20;76.60
42683;DHT22;28293;50.930;3.464;2023-03-23T09:25:07;15.30;76.00
42683;DHT22;28293;50.930;3.464;2023-03-23T09:27:34;15.40;75.60
42683;DHT22;28293;50.930;3.464;2023-03-23T09:30:03;15.40;75.30
42683;DHT22;28293;50.930;3.464;2023-03-23T09:32:35;15.30;75.50
42683;DHT22;28293;50.930;3.464;2023-03-23T09:35:02;15.30;75.90
42683;DHT22;28293;50.930;3.464;2023-03-23T09:37:29;15.20;75.60
42683;DHT22;28293;50.930;3.464;2023-03-23T09:39:55;15.00;75.90
42683;DHT22;28293;50.930;3.464;2023-03-23T09:42:29;15.00;76.50
42683;DHT22;28293;50.930;3.464;2023-03-23T09:48:14;14.90;76.40
42683;DHT22;28293;50.930;3.464;2023-03-23T09:50:42;14.70;76.40
42683;DHT22;28293;50.930;3.464;2023-03-23T09:53:30;14.70;76.60
42683;DHT22;28293;50.930;3.464;2023-03-23T09:56:01;14.90;76.60
42683;DHT22;28293;50.930;3.464;2023-03-23T09:58:35;15.00;76.60
42683;DHT22;28293;50.930;3.464;2023-03-23T10:01:10;15.10;76.00
42683;DHT22;28293;50.930;3.464;2023-03-23T10:03:43;15.10;75.60
42683;DHT22;28293;50.930;3.464;2023-03-23T10:06:13;15.10;74.50
42683;DHT22;28293;50.930;3.464;2023-03-23T10:08:49;15.10;75.20
42683;DHT22;28293;50.930;3.464;2023-03-23T10:14:34;15.10;75.70
42683;DHT22;28293;50.930;3.464;2023-03-23T10:17:22;15.10;75.50
42683;DHT22;28293;50.930;3.464;2023-03-23T10:25:37;15.00;75.00
42683;DHT22;28293;50.930;3.464;2023-03-23T10:28:17;14.80;75.40
42683;DHT22;28293;50.930;3.464;2023-03-23T10:30:51;14.80;76.80
42683;DHT22;28293;50.930;3.464;2023-03-23T10:33:41;14.60;77.30
42683;DHT22;28293;50.930;3.464;2023-03-23T10:36:37;14.40;79.10
42683;DHT22;28293;50.930;3.464;2023-03-23T10:39:13;14.40;80.80
42683;DHT22;28293;50.930;3.464;2023-03-23T10:41:42;14.70;81.10
42683;DHT22;28293;50.930;3.464;2023-03-23T10:44:21;15.10;80.00
42683;DHT22;28293;50.930;3.464;2023-03-23T10:49:41;15.40;75.10
42683;DHT22;28293;50.930;3.464;2023-03-23T10:54:50;15.40;75.80
42683;DHT22;28293;50.930;3.464;2023-03-23T10:57:28;15.60;73.20
42683;DHT22;28293;50.930;3.464;2023-03-23T11:02:44;15.80;71.90
42683;DHT22;28293;50.930;3.464;2023-03-23T11:05:23;15.70;71.90
42683;DHT22;28293;50.930;3.464;2023-03-23T11:07:54;16.10;71.00
42683;DHT22;28293;50.930;3.464;2023-03-23T11:12:49;15.80;70.90
42683;DHT22;28293;50.930;3.464;2023-03-23T11:15:31;15.60;70.40
42683;DHT22;28293;50.930;3.464;2023-03-23T11:18:00;15.40;72.40
42683;DHT22;28293;50.930;3.464;2023-03-23T11:20:28;15.40;74.90
42683;DHT22;28293;50.930;3.464;2023-03-23T11:22:55;15.10;75.20
42683;DHT22;28293;50.930;3.464;2023-03-23T11:25:21;15.00;75.30
42683;DHT22;28293;50.930;3.464;2023-03-23T11:27:48;14.80;76.40
42683;DHT22;28293;50.930;3.464;2023-03-23T11:30:20;15.10;77.50
42683;DHT22;28293;50.930;3.464;2023-03-23T11:32:46;15.30;76.40
42683;DHT22;28293;50.930;3.464;2023-03-23T11:35:25;15.50;75.80
42683;DHT22;28293;50.930;3.464;2023-03-23T11:37:57;15.60;75.60
42683;DHT22;28293;50.930;3.464;2023-03-23T11:40:30;15.70;74.70
42683;DHT22;28293;50.930;3.464;2023-03-23T11:43:09;15.70;75.10
42683;DHT22;28293;50.930;3.464;2023-03-23T11:46:01;16.00;74.60
42683;DHT22;28293;50.930;3.464;2023-03-23T11:48:35;16.00;72.80
42683;DHT22;28293;50.930;3.464;2023-03-23T11:51:17;16.00;72.40
42683;DHT22;28293;50.930;3.464;2023-03-23T11:56:35;16.10;70.10
42683;DHT22;28293;50.930;3.464;2023-03-23T11:59:02;16.10;70.10
42683;DHT22;28293;50.930;3.464;2023-03-23T12:07:10;15.70;69.70
42683;DHT22;28293;50.930;3.464;2023-03-23T12:12:50;15.60;71.20
42683;DHT22;28293;50.930;3.464;2023-03-23T12:15:50;15.50;70.30
42683;DHT22;28293;50.930;3.464;2023-03-23T12:26:27;15.10;74.30
42683;DHT22;28293;50.930;3.464;2023-03-23T12:29:29;15.40;74.80
42683;DHT22;28293;50.930;3.464;2023-03-23T12:45:57;15.60;74.30
42683;DHT22;28293;50.930;3.464;2023-03-23T12:48:32;15.60;72.50
42683;DHT22;28293;50.930;3.464;2023-03-23T12:54:07;15.80;72.40
42683;DHT22;28293;50.930;3.464;2023-03-23T12:56:47;16.10;71.60
42683;DHT22;28293;50.930;3.464;2023-03-23T12:59:47;16.30;70.90
42683;DHT22;28293;50.930;3.464;2023-03-23T13:08:06;16.10;67.80
42683;DHT22;28293;50.930;3.464;2023-03-23T13:10:35;16.10;68.20
42683;DHT22;28293;50.930;3.464;2023-03-23T13:13:04;16.10;68.50
42683;DHT22;28293;50.930;3.464;2023-03-23T13:18:47;16.00;70.60
42683;DHT22;28293;50.930;3.464;2023-03-23T13:21:24;15.90;72.40
42683;DHT22;28293;50.930;3.464;2023-03-23T13:24:01;16.20;73.90
42683;DHT22;28293;50.930;3.464;2023-03-23T13:26:29;16.50;73.10
42683;DHT22;28293;50.930;3.464;2023-03-23T13:29:00;16.80;71.10
42683;DHT22;28293;50.930;3.464;2023-03-23T13:31:36;16.60;68.40
42683;DHT22;28293;50.930;3.464;2023-03-23T13:34:15;16.60;68.50
42683;DHT22;28293;50.930;3.464;2023-03-23T13:36:44;16.30;69.80
42683;DHT22;28293;50.930;3.464;2023-03-23T13:39:24;16.30;70.30
42683;DHT22;28293;50.930;3.464;2023-03-23T13:44:42;16.70;70.90
42683;DHT22;28293;50.930;3.464;2023-03-23T13:49:59;16.90;70.60
42683;DHT22;28293;50.930;3.464;2023-03-23T13:57:53;16.60;71.60
42683;DHT22;28293;50.930;3.464;2023-03-23T14:10:58;16.30;71.50
42683;DHT22;28293;50.930;3.464;2023-03-23T14:14:00;16.30;71.60
42683;DHT22;28293;50.930;3.464;2023-03-23T14:16:42;16.10;72.70
42683;DHT22;28293;50.930;3.464;2023-03-23T14:21:58;16.10;75.60
42683;DHT22;28293;50.930;3.464;2023-03-23T14:24:33;16.30;76.50
42683;DHT22;28293;50.930;3.464;2023-03-23T14:27:09;16.60;76.40
42683;DHT22;28293;50.930;3.464;2023-03-23T14:29:36;16.60;75.20
42683;DHT22;28293;50.930;3.464;2023-03-23T14:32:04;16.70;74.50
42683;DHT22;28293;50.930;3.464;2023-03-23T14:34:31;16.70;74.00
42683;DHT22;28293;50.930;3.464;2023-03-23T14:36:59;16.70;72.80
42683;DHT22;28293;50.930;3.464;2023-03-23T14:42:00;16.70;72.70
42683;DHT22;28293;50.930;3.464;2023-03-23T14:44:31;16.80;72.40
42683;DHT22;28293;50.930;3.464;2023-03-23T14:47:00;16.80;72.40
42683;DHT22;28293;50.930;3.464;2023-03-23T14:49:37;16.70;72.70
42683;DHT22;28293;50.930;3.464;2023-03-23T14:52:17;16.60;72.30
42683;DHT22;28293;50.930;3.464;2023-03-23T14:54:44;16.60;72.10
42683;DHT22;28293;50.930;3.464;2023-03-23T14:57:16;16.70;71.30
42683;DHT22;28293;50.930;3.464;2023-03-23T14:59:43;16.70;71.20
42683;DHT22;28293;50.930;3.464;2023-03-23T15:02:35;16.80;70.00
42683;DHT22;28293;50.930;3.464;2023-03-23T15:05:19;16.90;70.10
42683;DHT22;28293;50.930;3.464;2023-03-23T15:07:50;16.90;69.10
42683;DHT22;28293;50.930;3.464;2023-03-23T15:10:20;16.80;69.60
42683;DHT22;28293;50.930;3.464;2023-03-23T15:12:49;16.70;69.90
42683;DHT22;28293;50.930;3.464;2023-03-23T15:15:28;16.70;70.40
42683;DHT22;28293;50.930;3.464;2023-03-23T15:17:55;16.60;71.10
42683;DHT22;28293;50.930;3.464;2023-03-23T15:20:24;16.60;71.20
42683;DHT22;28293;50.930;3.464;2023-03-23T15:22:50;16.60;71.70
42683;DHT22;28293;50.930;3.464;2023-03-23T15:27:55;16.50;72.20
42683;DHT22;28293;50.930;3.464;2023-03-23T15:32:52;16.50;72.10
42683;DHT22;28293;50.930;3.464;2023-03-23T15:35:21;16.30;72.10
42683;DHT22;28293;50.930;3.464;2023-03-23T15:37:53;16.20;73.20
42683;DHT22;28293;50.930;3.464;2023-03-23T15:40:24;16.10;73.40
42683;DHT22;28293;50.930;3.464;2023-03-23T15:43:14;15.80;73.40
42683;DHT22;28293;50.930;3.464;2023-03-23T15:46:33;15.70;73.40
42683;DHT22;28293;50.930;3.464;2023-03-23T15:49:14;15.60;73.70
42683;DHT22;28293;50.930;3.464;2023-03-23T15:51:41;15.50;74.00
42683;DHT22;28293;50.930;3.464;2023-03-23T15:54:12;15.50;74.00
42683;DHT22;28293;50.930;3.464;2023-03-23T15:56:39;15.50;73.80
42683;DHT22;28293;50.930;3.464;2023-03-23T15:59:07;15.50;73.90
42683;DHT22;28293;50.930;3.464;2023-03-23T16:01:32;15.60;74.10
42683;DHT22;28293;50.930;3.464;2023-03-23T16:04:11;15.60;73.60
42683;DHT22;28293;50.930;3.464;2023-03-23T16:06:38;15.70;73.70
42683;DHT22;28293;50.930;3.464;2023-03-23T16:09:05;15.80;73.20
42683;DHT22;28293;50.930;3.464;2023-03-23T16:11:31;15.90;72.50
42683;DHT22;28293;50.930;3.464;2023-03-23T16:13:58;15.90;71.80
42683;DHT22;28293;50.930;3.464;2023-03-23T16:16:27;15.80;71.40
42683;DHT22;28293;50.930;3.464;2023-03-23T16:18:54;15.80;71.60
42683;DHT22;28293;50.930;3.464;2023-03-23T16:21:20;15.80;71.90
42683;DHT22;28293;50.930;3.464;2023-03-23T16:23:46;15.70;72.10
42683;DHT22;28293;50.930;3.464;2023-03-23T16:26:13;15.70;71.80
42683;DHT22;28293;50.930;3.464;2023-03-23T16:28:40;15.70;71.90
42683;DHT22;28293;50.930;3.464;2023-03-23T16:31:06;15.70;72.30
42683;DHT22;28293;50.930;3.464;2023-03-23T16:33:32;15.70;72.40
42683;DHT22;28293;50.930;3.464;2023-03-23T16:35:58;15.70;72.50
42683;DHT22;28293;50.930;3.464;2023-03-23T16:38:24;15.70;72.70
42683;DHT22;28293;50.930;3.464;2023-03-23T16:40:50;15.60;72.80
42683;DHT22;28293;50.930;3.464;2023-03-23T16:43:16;15.60;72.40
42683;DHT22;28293;50.930;3.464;2023-03-23T16:45:43;15.50;72.80
42683;DHT22;28293;50.930;3.464;2023-03-23T16:48:11;15.50;73.10
42683;DHT22;28293;50.930;3.464;2023-03-23T16:50:38;15.50;73.30
42683;DHT22;28293;50.930;3.464;2023-03-23T16:53:05;15.50;73.30
42683;DHT22;28293;50.930;3.464;2023-03-23T16:55:32;15.50;73.90
42683;DHT22;28293;50.930;3.464;2023-03-23T16:57:58;15.50;74.20
42683;DHT22;28293;50.930;3.464;2023-03-23T17:00:24;15.40;74.40
42683;DHT22;28293;50.930;3.464;2023-03-23T17:02:52;15.50;74.40
42683;DHT22;28293;50.930;3.464;2023-03-23T17:05:22;15.40;74.60
42683;DHT22;28293;50.930;3.464;2023-03-23T17:07:48;15.40;74.70
42683;DHT22;28293;50.930;3.464;2023-03-23T17:10:15;15.30;74.60
42683;DHT22;28293;50.930;3.464;2023-03-23T17:12:41;15.40;74.90
42683;DHT22;28293;50.930;3.464;2023-03-23T17:15:07;15.30;75.00
42683;DHT22;28293;50.930;3.464;2023-03-23T17:17:34;15.30;75.00
42683;DHT22;28293;50.930;3.464;2023-03-23T17:20:00;15.30;74.90
42683;DHT22;28293;50.930;3.464;2023-03-23T17:22:27;15.30;74.80
42683;DHT22;28293;50.930;3.464;2023-03-23T17:24:52;15.30;74.80
42683;DHT22;28293;50.930;3.464;2023-03-23T17:27:20;15.30;74.70
42683;DHT22;28293;50.930;3.464;2023-03-23T17:29:46;15.30;74.60
42683;DHT22;28293;50.930;3.464;2023-03-23T17:32:12;15.30;74.70
42683;DHT22;28293;50.930;3.464;2023-03-23T17:34:39;15.20;74.60
42683;DHT22;28293;50.930;3.464;2023-03-23T17:37:05;15.20;74.70
42683;DHT22;28293;50.930;3.464;2023-03-23T17:39:31;15.20;74.80
42683;DHT22;28293;50.930;3.464;2023-03-23T17:41:58;15.20;74.70
42683;DHT22;28293;50.930;3.464;2023-03-23T17:44:25;15.10;74.50
42683;DHT22;28293;50.930;3.464;2023-03-23T17:46:50;15.10;74.30
42683;DHT22;28293;50.930;3.464;2023-03-23T17:49:16;15.10;74.20
42683;DHT22;28293;50.930;3.464;2023-03-23T17:51:42;15.20;74.80
42683;DHT22;28293;50.930;3.464;2023-03-23T17:54:08;15.10;75.40